sensor_id;sensor_type;location;lat;lon;timestamp;temperature;humidity
40660;DHT22;26753;45.544;9.232;2023-03-20T00:01:46;12.80;99.90
40660;DHT22;26753;45.544;9.232;2023-03-20T00:04:12;12.70;99.90
40660;DHT22;26753;45.544;9.232;2023-03-20T00:06:37;13.00;99.90
40660;DHT22;26753;45.544;9.232;2023-03-20T00:09:03;13.00;99.90
40660;DHT22;26753;45.544;9.232;2023-03-20T00:11:29;12.80;99.90
40660;DHT22;26753;45.544;9.232;2023-03-20T00:14:18;12.40;99.90
40660;DHT22;26753;45.544;9.232;2023-03-20T00:16:43;13.10;99.90
40660;DHT22;26753;45.544;9.232;2023-03-20T00:19:15;12.60;99.90
40660;DHT22;26753;45.544;9.232;2023-03-20T00:21:43;11.70;99.90
40660;DHT22;26753;45.544;9.232;2023-03-20T00:24:10;12.60;99.90
40660;DHT22;26753;45.544;9.232;2023-03-20T00:26:35;14.20;99.90
40660;DHT22;26753;45.544;9.232;2023-03-20T00:29:03;13.70;99.90
40660;DHT22;26753;45.544;9.232;2023-03-20T00:31:32;12.70;99.90
40660;DHT22;26753;45.544;9.232;2023-03-20T00:33:59;12.40;99.90
40660;DHT22;26753;45.544;9.232;2023-03-20T00:36:25;12.10;99.90
40660;DHT22;26753;45.544;9.232;2023-03-20T00:38:51;11.90;99.90
40660;DHT22;26753;45.544;9.232;2023-03-20T00:43:42;12.20;99.90
40660;DHT22;26753;45.544;9.232;2023-03-20T00:46:11;12.20;99.90
40660;DHT22;26753;45.544;9.232;2023-03-20T00:48:37;12.40;99.90
40660;DHT22;26753;45.544;9.232;2023-03-20T00:51:04;12.80;99.90
40660;DHT22;26753;45.544;9.232;2023-03-20T00:53:31;14.50;99.90
40660;DHT22;26753;45.544;9.232;2023-03-20T00:55:57;12.60;99.90
40660;DHT22;26753;45.544;9.232;2023-03-20T00:58:23;12.40;99.90
40660;DHT22;26753;45.544;9.232;2023-03-20T01:00:48;11.10;99.90
40660;DHT22;26753;45.544;9.232;2023-03-20T01:03:16;11.50;99.90
40660;DHT22;26753;45.544;9.232;2023-03-20T01:05:42;11.50;99.90
40660;DHT22;26753;45.544;9.232;2023-03-20T01:08:10;11.50;99.90
40660;DHT22;26753;45.544;9.232;2023-03-20T01:10:36;12.40;99.90
40660;DHT22;26753;45.544;9.232;2023-03-20T01:13:02;12.30;99.90
40660;DHT22;26753;45.544;9.232;2023-03-20T01:15:31;13.60;99.90
40660;DHT22;26753;45.544;9.232;2023-03-20T01:17:57;12.90;99.90
40660;DHT22;26753;45.544;9.232;2023-03-20T01:20:23;11.60;99.90
40660;DHT22;26753;45.544;9.232;2023-03-20T01:22:50;11.60;99.90
40660;DHT22;26753;45.544;9.232;2023-03-20T01:25:15;12.30;99.90
40660;DHT22;26753;45.544;9.232;2023-03-20T01:27:43;12.90;99.90
40660;DHT22;26753;45.544;9.232;2023-03-20T01:30:13;13.00;99.90
40660;DHT22;26753;45.544;9.232;2023-03-20T01:32:40;13.00;99.90
40660;DHT22;26753;45.544;9.232;2023-03-20T01:35:11;12.90;99.90
40660;DHT22;26753;45.544;9.232;2023-03-20T01:37:36;10.80;99.90
40660;DHT22;26753;45.544;9.232;2023-03-20T01:40:02;12.40;99.90
40660;DHT22;26753;45.544;9.232;2023-03-20T01:42:28;13.00;99.90
40660;DHT22;26753;45.544;9.232;2023-03-20T01:44:53;12.30;99.90
40660;DHT22;26753;45.544;9.232;2023-03-20T01:47:20;12.00;99.90
40660;DHT22;26753;45.544;9.232;2023-03-20T01:52:25;11.50;99.90
40660;DHT22;26753;45.544;9.232;2023-03-20T01:54:51;11.80;99.90
40660;DHT22;26753;45.544;9.232;2023-03-20T01:57:18;12.20;99.90
40660;DHT22;26753;45.544;9.232;2023-03-20T02:00:17;12.80;99.90
40660;DHT22;26753;45.544;9.232;2023-03-20T02:02:36;12.50;99.90
40660;DHT22;26753;45.544;9.232;2023-03-20T02:05:03;12.20;99.90
40660;DHT22;26753;45.544;9.232;2023-03-20T02:07:30;13.10;99.90
40660;DHT22;26753;45.544;9.232;2023-03-20T02:09:57;12.40;99.90
40660;DHT22;26753;45.544;9.232;2023-03-20T02:12:23;11.40;99.90
40660;DHT22;26753;45.544;9.232;2023-03-20T02:14:48;12.00;99.90
40660;DHT22;26753;45.544;9.232;2023-03-20T02:17:14;12.30;99.90
40660;DHT22;26753;45.544;9.232;2023-03-20T02:19:45;11.10;99.90
40660;DHT22;26753;45.544;9.232;2023-03-20T02:46:05;12.50;99.90
40660;DHT22;26753;45.544;9.232;2023-03-20T02:51:02;13.50;99.90
40660;DHT22;26753;45.544;9.232;2023-03-20T02:53:39;12.50;99.90
40660;DHT22;26753;45.544;9.232;2023-03-20T02:56:11;11.60;99.90
40660;DHT22;26753;45.544;9.232;2023-03-20T02:58:42;11.40;99.90
40660;DHT22;26753;45.544;9.232;2023-03-20T03:01:13;12.00;99.90
40660;DHT22;26753;45.544;9.232;2023-03-20T03:04:01;12.10;99.90
40660;DHT22;26753;45.544;9.232;2023-03-20T03:06:26;11.40;99.90
40660;DHT22;26753;45.544;9.232;2023-03-20T03:09:01;11.30;99.90
40660;DHT22;26753;45.544;9.232;2023-03-20T03:11:27;11.50;99.90
40660;DHT22;26753;45.544;9.232;2023-03-20T03:13:54;12.20;99.90
40660;DHT22;26753;45.544;9.232;2023-03-20T03:16:25;12.10;99.90
40660;DHT22;26753;45.544;9.232;2023-03-20T03:18:58;11.00;99.90
40660;DHT22;26753;45.544;9.232;2023-03-20T03:21:25;12.00;99.90
40660;DHT22;26753;45.544;9.232;2023-03-20T03:23:54;11.50;99.90
40660;DHT22;26753;45.544;9.232;2023-03-20T03:26:23;12.10;99.90
40660;DHT22;26753;45.544;9.232;2023-03-20T03:28:49;11.70;99.90
40660;DHT22;26753;45.544;9.232;2023-03-20T03:31:16;12.20;99.90
40660;DHT22;26753;45.544;9.232;2023-03-20T03:33:47;11.30;99.90
40660;DHT22;26753;45.544;9.232;2023-03-20T03:36:37;10.90;99.90
40660;DHT22;26753;45.544;9.232;2023-03-20T03:41:50;12.10;99.90
40660;DHT22;26753;45.544;9.232;2023-03-20T03:44:21;12.10;99.90
40660;DHT22;26753;45.544;9.232;2023-03-20T03:46:52;13.20;99.90
40660;DHT22;26753;45.544;9.232;2023-03-20T03:49:20;10.50;99.90
40660;DHT22;26753;45.544;9.232;2023-03-20T03:51:47;11.00;99.90
40660;DHT22;26753;45.544;9.232;2023-03-20T03:54:16;12.60;99.90
40660;DHT22;26753;45.544;9.232;2023-03-20T03:56:42;9.40;99.90
40660;DHT22;26753;45.544;9.232;2023-03-20T03:59:17;11.20;99.90
40660;DHT22;26753;45.544;9.232;2023-03-20T04:01:44;12.40;99.90
40660;DHT22;26753;45.544;9.232;2023-03-20T04:04:11;10.60;99.90
40660;DHT22;26753;45.544;9.232;2023-03-20T04:06:37;10.30;99.90
40660;DHT22;26753;45.544;9.232;2023-03-20T04:09:03;12.80;99.90
40660;DHT22;26753;45.544;9.232;2023-03-20T04:11:29;12.30;99.90
40660;DHT22;26753;45.544;9.232;2023-03-20T04:13:55;11.00;99.90
40660;DHT22;26753;45.544;9.232;2023-03-20T04:16:21;10.50;99.90
40660;DHT22;26753;45.544;9.232;2023-03-20T04:18:48;10.80;99.90
40660;DHT22;26753;45.544;9.232;2023-03-20T04:21:14;11.30;99.90
40660;DHT22;26753;45.544;9.232;2023-03-20T04:23:40;11.40;99.90
40660;DHT22;26753;45.544;9.232;2023-03-20T04:26:06;10.20;99.90
40660;DHT22;26753;45.544;9.232;2023-03-20T04:28:31;10.40;99.90
40660;DHT22;26753;45.544;9.232;2023-03-20T04:30:57;12.20;99.90
40660;DHT22;26753;45.544;9.232;2023-03-20T04:33:24;11.10;99.90
40660;DHT22;26753;45.544;9.232;2023-03-20T04:35:49;11.80;99.90
40660;DHT22;26753;45.544;9.232;2023-03-20T04:38:15;11.30;99.90
40660;DHT22;26753;45.544;9.232;2023-03-20T04:40:42;11.40;99.90
40660;DHT22;26753;45.544;9.232;2023-03-20T04:43:08;11.00;99.90
40660;DHT22;26753;45.544;9.232;2023-03-20T04:45:33;9.80;99.90
40660;DHT22;26753;45.544;9.232;2023-03-20T04:50:26;11.50;99.90
40660;DHT22;26753;45.544;9.232;2023-03-20T04:52:51;11.40;99.90
40660;DHT22;26753;45.544;9.232;2023-03-20T04:55:17;10.60;99.90
40660;DHT22;26753;45.544;9.232;2023-03-20T04:57:42;11.10;99.90
40660;DHT22;26753;45.544;9.232;2023-03-20T05:00:08;10.60;99.90
40660;DHT22;26753;45.544;9.232;2023-03-20T05:02:34;11.60;99.90
40660;DHT22;26753;45.544;9.232;2023-03-20T05:04:59;10.60;99.90
40660;DHT22;26753;45.544;9.232;2023-03-20T05:07:25;9.70;99.90
40660;DHT22;26753;45.544;9.232;2023-03-20T05:09:51;11.30;99.90
40660;DHT22;26753;45.544;9.232;2023-03-20T05:12:16;10.40;99.90
40660;DHT22;26753;45.544;9.232;2023-03-20T05:14:42;9.00;99.90
40660;DHT22;26753;45.544;9.232;2023-03-20T05:17:07;10.00;99.90
40660;DHT22;26753;45.544;9.232;2023-03-20T05:19:33;11.20;99.90
40660;DHT22;26753;45.544;9.232;2023-03-20T05:21:58;12.00;99.90
40660;DHT22;26753;45.544;9.232;2023-03-20T05:24:24;10.10;99.90
40660;DHT22;26753;45.544;9.232;2023-03-20T05:26:50;11.00;99.90
40660;DHT22;26753;45.544;9.232;2023-03-20T05:29:16;10.20;99.90
40660;DHT22;26753;45.544;9.232;2023-03-20T05:31:41;9.80;99.90
40660;DHT22;26753;45.544;9.232;2023-03-20T05:34:07;11.10;99.90
40660;DHT22;26753;45.544;9.232;2023-03-20T05:36:32;10.10;99.90
40660;DHT22;26753;45.544;9.232;2023-03-20T05:38:58;10.20;99.90
40660;DHT22;26753;45.544;9.232;2023-03-20T05:41:23;12.40;99.90
40660;DHT22;26753;45.544;9.232;2023-03-20T05:43:49;10.60;99.90
40660;DHT22;26753;45.544;9.232;2023-03-20T05:51:07;11.20;99.90
40660;DHT22;26753;45.544;9.232;2023-03-20T05:53:33;12.20;99.90
40660;DHT22;26753;45.544;9.232;2023-03-20T05:55:58;12.10;99.90
40660;DHT22;26753;45.544;9.232;2023-03-20T05:58:24;9.40;99.90
40660;DHT22;26753;45.544;9.232;2023-03-20T06:00:49;10.20;99.90
40660;DHT22;26753;45.544;9.232;2023-03-20T06:03:15;12.20;99.90
40660;DHT22;26753;45.544;9.232;2023-03-20T06:05:40;11.70;99.90
40660;DHT22;26753;45.544;9.232;2023-03-20T06:08:06;10.30;99.90
40660;DHT22;26753;45.544;9.232;2023-03-20T06:10:31;12.30;99.90
40660;DHT22;26753;45.544;9.232;2023-03-20T06:12:57;10.50;99.90
40660;DHT22;26753;45.544;9.232;2023-03-20T06:15:25;11.70;99.90
40660;DHT22;26753;45.544;9.232;2023-03-20T06:17:51;10.40;99.90
40660;DHT22;26753;45.544;9.232;2023-03-20T06:20:16;11.30;99.90
40660;DHT22;26753;45.544;9.232;2023-03-20T06:22:42;11.80;99.90
40660;DHT22;26753;45.544;9.232;2023-03-20T06:25:08;11.90;99.90
40660;DHT22;26753;45.544;9.232;2023-03-20T06:27:33;9.60;99.90
40660;DHT22;26753;45.544;9.232;2023-03-20T06:29:59;10.80;99.90
40660;DHT22;26753;45.544;9.232;2023-03-20T06:32:24;10.70;99.90
40660;DHT22;26753;45.544;9.232;2023-03-20T06:34:50;10.30;99.90
40660;DHT22;26753;45.544;9.232;2023-03-20T06:37:16;11.90;99.90
40660;DHT22;26753;45.544;9.232;2023-03-20T06:39:41;12.30;99.90
40660;DHT22;26753;45.544;9.232;2023-03-20T06:42:07;13.30;99.90
40660;DHT22;26753;45.544;9.232;2023-03-20T06:44:32;11.60;99.90
40660;DHT22;26753;45.544;9.232;2023-03-20T06:46:58;13.20;99.90
40660;DHT22;26753;45.544;9.232;2023-03-20T06:51:49;11.30;99.90
40660;DHT22;26753;45.544;9.232;2023-03-20T06:54:15;12.20;99.90
40660;DHT22;26753;45.544;9.232;2023-03-20T06:56:41;11.70;99.90
40660;DHT22;26753;45.544;9.232;2023-03-20T06:59:06;12.80;99.90
40660;DHT22;26753;45.544;9.232;2023-03-20T07:01:32;12.90;99.90
40660;DHT22;26753;45.544;9.232;2023-03-20T07:03:57;12.50;99.90
40660;DHT22;26753;45.544;9.232;2023-03-20T07:06:23;12.50;99.90
40660;DHT22;26753;45.544;9.232;2023-03-20T07:08:48;12.30;99.90
40660;DHT22;26753;45.544;9.232;2023-03-20T07:11:17;13.10;99.90
40660;DHT22;26753;45.544;9.232;2023-03-20T07:13:43;14.60;99.90
40660;DHT22;26753;45.544;9.232;2023-03-20T07:16:08;12.50;99.90
40660;DHT22;26753;45.544;9.232;2023-03-20T07:18:34;11.20;99.90
40660;DHT22;26753;45.544;9.232;2023-03-20T07:21:00;12.70;99.90
40660;DHT22;26753;45.544;9.232;2023-03-20T07:23:27;12.80;99.90
40660;DHT22;26753;45.544;9.232;2023-03-20T07:25:53;12.20;99.90
40660;DHT22;26753;45.544;9.232;2023-03-20T07:28:22;12.10;99.90
40660;DHT22;26753;45.544;9.232;2023-03-20T07:30:48;13.60;99.90
40660;DHT22;26753;45.544;9.232;2023-03-20T07:33:13;13.70;99.90
40660;DHT22;26753;45.544;9.232;2023-03-20T07:35:39;14.50;99.90
40660;DHT22;26753;45.544;9.232;2023-03-20T07:38:05;13.90;99.90
40660;DHT22;26753;45.544;9.232;2023-03-20T07:40:31;14.10;99.90
40660;DHT22;26753;45.544;9.232;2023-03-20T07:42:57;14.20;99.90
40660;DHT22;26753;45.544;9.232;2023-03-20T07:45:23;14.80;99.90
40660;DHT22;26753;45.544;9.232;2023-03-20T07:47:48;14.10;99.90
40660;DHT22;26753;45.544;9.232;2023-03-20T07:50:14;14.20;99.90
40660;DHT22;26753;45.544;9.232;2023-03-20T07:52:43;15.90;99.90
40660;DHT22;26753;45.544;9.232;2023-03-20T07:55:12;13.80;99.90
40660;DHT22;26753;45.544;9.232;2023-03-20T07:57:38;14.50;99.90
40660;DHT22;26753;45.544;9.232;2023-03-20T08:00:04;14.80;99.90
40660;DHT22;26753;45.544;9.232;2023-03-20T08:02:29;14.70;99.90
40660;DHT22;26753;45.544;9.232;2023-03-20T08:04:55;14.70;99.90
40660;DHT22;26753;45.544;9.232;2023-03-20T08:07:21;14.20;99.90
40660;DHT22;26753;45.544;9.232;2023-03-20T08:09:46;15.00;99.90
40660;DHT22;26753;45.544;9.232;2023-03-20T08:12:12;15.00;99.90
40660;DHT22;26753;45.544;9.232;2023-03-20T08:14:38;15.10;99.90
40660;DHT22;26753;45.544;9.232;2023-03-20T08:17:04;15.20;99.90
40660;DHT22;26753;45.544;9.232;2023-03-20T08:19:29;15.30;99.90
40660;DHT22;26753;45.544;9.232;2023-03-20T08:21:55;15.30;99.90
40660;DHT22;26753;45.544;9.232;2023-03-20T08:24:20;15.40;99.90
40660;DHT22;26753;45.544;9.232;2023-03-20T08:26:46;15.50;99.90
40660;DHT22;26753;45.544;9.232;2023-03-20T08:29:12;15.40;99.90
40660;DHT22;26753;45.544;9.232;2023-03-20T08:31:38;15.40;99.90
40660;DHT22;26753;45.544;9.232;2023-03-20T08:34:04;15.40;99.90
40660;DHT22;26753;45.544;9.232;2023-03-20T08:36:30;15.80;99.90
40660;DHT22;26753;45.544;9.232;2023-03-20T08:38:56;15.70;99.90
40660;DHT22;26753;45.544;9.232;2023-03-20T08:41:21;15.70;99.90
40660;DHT22;26753;45.544;9.232;2023-03-20T08:43:47;15.80;99.90
40660;DHT22;26753;45.544;9.232;2023-03-20T08:46:12;15.80;99.90
40660;DHT22;26753;45.544;9.232;2023-03-20T08:48:38;15.80;99.90
40660;DHT22;26753;45.544;9.232;2023-03-20T08:51:04;15.70;99.90
40660;DHT22;26753;45.544;9.232;2023-03-20T08:53:29;15.70;99.90
40660;DHT22;26753;45.544;9.232;2023-03-20T08:55:55;15.90;99.90
40660;DHT22;26753;45.544;9.232;2023-03-20T08:58:21;15.90;99.90
40660;DHT22;26753;45.544;9.232;2023-03-20T09:00:46;15.90;99.90
40660;DHT22;26753;45.544;9.232;2023-03-20T09:03:12;16.00;99.90
40660;DHT22;26753;45.544;9.232;2023-03-20T09:05:45;16.10;99.90
40660;DHT22;26753;45.544;9.232;2023-03-20T09:08:11;16.20;99.90
40660;DHT22;26753;45.544;9.232;2023-03-20T09:10:37;16.30;99.90
40660;DHT22;26753;45.544;9.232;2023-03-20T09:13:02;16.30;99.90
40660;DHT22;26753;45.544;9.232;2023-03-20T09:15:28;16.40;99.90
40660;DHT22;26753;45.544;9.232;2023-03-20T09:17:54;16.70;99.90
40660;DHT22;26753;45.544;9.232;2023-03-20T09:20:19;17.00;99.90
40660;DHT22;26753;45.544;9.232;2023-03-20T09:22:45;17.10;99.90
40660;DHT22;26753;45.544;9.232;2023-03-20T09:25:11;17.30;99.90
40660;DHT22;26753;45.544;9.232;2023-03-20T09:27:37;17.40;99.90
40660;DHT22;26753;45.544;9.232;2023-03-20T09:30:03;17.70;99.90
40660;DHT22;26753;45.544;9.232;2023-03-20T09:32:30;17.90;99.90
40660;DHT22;26753;45.544;9.232;2023-03-20T09:34:56;17.90;99.90
40660;DHT22;26753;45.544;9.232;2023-03-20T09:37:21;17.90;99.90
40660;DHT22;26753;45.544;9.232;2023-03-20T09:39:47;18.00;99.90
40660;DHT22;26753;45.544;9.232;2023-03-20T09:42:17;18.30;99.90
40660;DHT22;26753;45.544;9.232;2023-03-20T09:47:27;18.80;99.90
40660;DHT22;26753;45.544;9.232;2023-03-20T09:54:53;19.10;99.90
40660;DHT22;26753;45.544;9.232;2023-03-20T09:57:39;19.10;99.90
40660;DHT22;26753;45.544;9.232;2023-03-20T10:00:06;19.00;99.90
40660;DHT22;26753;45.544;9.232;2023-03-20T10:05:01;19.40;99.90
40660;DHT22;26753;45.544;9.232;2023-03-20T10:07:27;19.70;99.90
40660;DHT22;26753;45.544;9.232;2023-03-20T10:09:53;19.80;99.90
40660;DHT22;26753;45.544;9.232;2023-03-20T10:12:23;20.00;99.90
40660;DHT22;26753;45.544;9.232;2023-03-20T10:22:57;19.60;99.90
40660;DHT22;26753;45.544;9.232;2023-03-20T10:28:09;20.10;99.90
40660;DHT22;26753;45.544;9.232;2023-03-20T10:33:32;20.60;99.90
40660;DHT22;26753;45.544;9.232;2023-03-20T10:38:55;20.30;99.90
40660;DHT22;26753;45.544;9.232;2023-03-20T10:41:24;20.30;99.90
40660;DHT22;26753;45.544;9.232;2023-03-20T10:43:51;20.60;99.90
40660;DHT22;26753;45.544;9.232;2023-03-20T10:46:18;20.40;99.90
40660;DHT22;26753;45.544;9.232;2023-03-20T10:48:46;20.40;99.90
40660;DHT22;26753;45.544;9.232;2023-03-20T10:51:15;20.50;99.90
40660;DHT22;26753;45.544;9.232;2023-03-20T10:53:46;20.40;99.90
40660;DHT22;26753;45.544;9.232;2023-03-20T10:56:14;20.20;99.90
40660;DHT22;26753;45.544;9.232;2023-03-20T10:58:41;20.10;99.90
40660;DHT22;26753;45.544;9.232;2023-03-20T11:01:09;19.90;99.90
40660;DHT22;26753;45.544;9.232;2023-03-20T11:03:35;20.00;99.90
40660;DHT22;26753;45.544;9.232;2023-03-20T11:06:17;20.00;99.90
40660;DHT22;26753;45.544;9.232;2023-03-20T11:08:46;20.10;99.90
40660;DHT22;26753;45.544;9.232;2023-03-20T11:11:13;20.00;99.90
40660;DHT22;26753;45.544;9.232;2023-03-20T11:13:45;19.70;99.90
40660;DHT22;26753;45.544;9.232;2023-03-20T11:16:30;19.80;99.90
40660;DHT22;26753;45.544;9.232;2023-03-20T11:19:09;20.00;99.90
40660;DHT22;26753;45.544;9.232;2023-03-20T11:21:36;19.90;99.90
40660;DHT22;26753;45.544;9.232;2023-03-20T11:24:19;19.70;99.90
40660;DHT22;26753;45.544;9.232;2023-03-20T11:26:46;19.60;99.90
40660;DHT22;26753;45.544;9.232;2023-03-20T11:29:23;19.20;99.90
40660;DHT22;26753;45.544;9.232;2023-03-20T11:31:50;19.20;99.90
40660;DHT22;26753;45.544;9.232;2023-03-20T11:37:00;19.40;99.90
40660;DHT22;26753;45.544;9.232;2023-03-20T11:39:27;19.60;99.90
40660;DHT22;26753;45.544;9.232;2023-03-20T11:41:54;19.50;99.90
40660;DHT22;26753;45.544;9.232;2023-03-20T11:44:27;19.10;99.90
40660;DHT22;26753;45.544;9.232;2023-03-20T11:46:54;18.80;99.90
40660;DHT22;26753;45.544;9.232;2023-03-20T11:49:21;18.70;99.90
40660;DHT22;26753;45.544;9.232;2023-03-20T11:51:49;18.70;99.90
40660;DHT22;26753;45.544;9.232;2023-03-20T11:54:16;18.80;99.90
40660;DHT22;26753;45.544;9.232;2023-03-20T11:56:53;18.80;99.90
40660;DHT22;26753;45.544;9.232;2023-03-20T11:59:23;19.00;99.90
40660;DHT22;26753;45.544;9.232;2023-03-20T12:01:51;19.10;99.90
40660;DHT22;26753;45.544;9.232;2023-03-20T12:09:14;19.50;99.90
40660;DHT22;26753;45.544;9.232;2023-03-20T12:11:47;19.70;99.90
40660;DHT22;26753;45.544;9.232;2023-03-20T12:14:17;19.80;99.90
40660;DHT22;26753;45.544;9.232;2023-03-20T12:16:47;19.70;99.90
40660;DHT22;26753;45.544;9.232;2023-03-20T12:19:15;19.70;99.90
40660;DHT22;26753;45.544;9.232;2023-03-20T12:21:53;19.80;99.90
40660;DHT22;26753;45.544;9.232;2023-03-20T12:24:26;19.90;99.90
40660;DHT22;26753;45.544;9.232;2023-03-20T12:26:55;20.30;99.90
40660;DHT22;26753;45.544;9.232;2023-03-20T12:29:30;20.60;99.90
40660;DHT22;26753;45.544;9.232;2023-03-20T12:32:04;20.80;99.90
40660;DHT22;26753;45.544;9.232;2023-03-20T12:34:38;21.20;99.90
40660;DHT22;26753;45.544;9.232;2023-03-20T12:37:09;21.10;99.90
40660;DHT22;26753;45.544;9.232;2023-03-20T12:39:42;23.10;99.90
40660;DHT22;26753;45.544;9.232;2023-03-20T12:57:32;35.30;61.70
40660;DHT22;26753;45.544;9.232;2023-03-20T13:02:49;35.10;62.60
40660;DHT22;26753;45.544;9.232;2023-03-20T13:05:24;36.90;61.40
40660;DHT22;26753;45.544;9.232;2023-03-20T13:10:41;32.30;61.20
40660;DHT22;26753;45.544;9.232;2023-03-20T13:13:12;34.60;61.80
40660;DHT22;26753;45.544;9.232;2023-03-20T13:20:33;37.80;57.70
40660;DHT22;26753;45.544;9.232;2023-03-20T13:30:59;38.70;54.30
40660;DHT22;26753;45.544;9.232;2023-03-20T13:38:36;37.60;54.90
40660;DHT22;26753;45.544;9.232;2023-03-20T13:41:05;39.20;54.00
40660;DHT22;26753;45.544;9.232;2023-03-20T13:43:39;41.30;52.60
40660;DHT22;26753;45.544;9.232;2023-03-20T13:46:09;41.80;50.80
40660;DHT22;26753;45.544;9.232;2023-03-20T13:48:36;42.60;51.30
40660;DHT22;26753;45.544;9.232;2023-03-20T13:53:38;43.60;49.20
40660;DHT22;26753;45.544;9.232;2023-03-20T13:56:20;43.50;48.90
40660;DHT22;26753;45.544;9.232;2023-03-20T13:58:54;43.70;47.50
40660;DHT22;26753;45.544;9.232;2023-03-20T14:03:49;44.90;47.10
40660;DHT22;26753;45.544;9.232;2023-03-20T14:08:57;45.50;47.00
40660;DHT22;26753;45.544;9.232;2023-03-20T14:13:49;46.30;45.90
40660;DHT22;26753;45.544;9.232;2023-03-20T14:16:16;46.50;45.50
40660;DHT22;26753;45.544;9.232;2023-03-20T14:18:48;46.50;44.60
40660;DHT22;26753;45.544;9.232;2023-03-20T14:21:17;46.50;44.20
40660;DHT22;26753;45.544;9.232;2023-03-20T14:23:49;46.40;44.60
40660;DHT22;26753;45.544;9.232;2023-03-20T14:26:20;46.10;44.30
40660;DHT22;26753;45.544;9.232;2023-03-20T14:28:54;46.10;43.70
40660;DHT22;26753;45.544;9.232;2023-03-20T14:31:31;45.80;44.30
40660;DHT22;26753;45.544;9.232;2023-03-20T14:36:43;45.20;44.20
40660;DHT22;26753;45.544;9.232;2023-03-20T14:39:11;45.50;44.00
40660;DHT22;26753;45.544;9.232;2023-03-20T14:44:12;46.10;43.60
40660;DHT22;26753;45.544;9.232;2023-03-20T14:46:55;46.10;43.10
40660;DHT22;26753;45.544;9.232;2023-03-20T14:54:43;45.80;43.00
40660;DHT22;26753;45.544;9.232;2023-03-20T14:57:16;45.50;42.40
40660;DHT22;26753;45.544;9.232;2023-03-20T14:59:47;45.90;42.70
40660;DHT22;26753;45.544;9.232;2023-03-20T15:02:29;44.90;43.10
40660;DHT22;26753;45.544;9.232;2023-03-20T15:04:58;44.60;42.40
40660;DHT22;26753;45.544;9.232;2023-03-20T15:07:24;43.60;42.70
40660;DHT22;26753;45.544;9.232;2023-03-20T15:09:52;43.80;42.70
40660;DHT22;26753;45.544;9.232;2023-03-20T15:12:19;43.00;42.90
40660;DHT22;26753;45.544;9.232;2023-03-20T15:17:16;41.90;43.00
40660;DHT22;26753;45.544;9.232;2023-03-20T15:19:42;42.10;43.50
40660;DHT22;26753;45.544;9.232;2023-03-20T15:22:14;42.70;43.50
40660;DHT22;26753;45.544;9.232;2023-03-20T15:24:41;41.10;43.30
40660;DHT22;26753;45.544;9.232;2023-03-20T15:27:08;36.80;44.30
40660;DHT22;26753;45.544;9.232;2023-03-20T15:29:36;34.00;46.20
40660;DHT22;26753;45.544;9.232;2023-03-20T15:32:02;31.80;48.20
40660;DHT22;26753;45.544;9.232;2023-03-20T15:34:31;30.80;49.30
40660;DHT22;26753;45.544;9.232;2023-03-20T15:36:58;29.80;50.20
40660;DHT22;26753;45.544;9.232;2023-03-20T15:39:25;28.50;51.00
40660;DHT22;26753;45.544;9.232;2023-03-20T15:46:53;27.30;53.10
40660;DHT22;26753;45.544;9.232;2023-03-20T15:49:20;26.80;53.10
40660;DHT22;26753;45.544;9.232;2023-03-20T15:51:45;26.20;53.90
40660;DHT22;26753;45.544;9.232;2023-03-20T15:54:12;25.80;55.30
40660;DHT22;26753;45.544;9.232;2023-03-20T15:56:38;25.60;56.00
40660;DHT22;26753;45.544;9.232;2023-03-20T15:59:08;25.50;56.70
40660;DHT22;26753;45.544;9.232;2023-03-20T16:01:35;25.30;56.70
40660;DHT22;26753;45.544;9.232;2023-03-20T16:04:01;24.80;57.50
40660;DHT22;26753;45.544;9.232;2023-03-20T16:06:27;24.30;58.40
40660;DHT22;26753;45.544;9.232;2023-03-20T16:08:57;24.10;59.10
40660;DHT22;26753;45.544;9.232;2023-03-20T16:11:23;24.10;59.50
40660;DHT22;26753;45.544;9.232;2023-03-20T16:13:49;24.00;60.10
40660;DHT22;26753;45.544;9.232;2023-03-20T16:16:20;23.80;60.60
40660;DHT22;26753;45.544;9.232;2023-03-20T16:18:46;23.50;61.40
40660;DHT22;26753;45.544;9.232;2023-03-20T16:23:44;23.30;62.20
40660;DHT22;26753;45.544;9.232;2023-03-20T16:26:14;23.30;62.50
40660;DHT22;26753;45.544;9.232;2023-03-20T16:28:41;23.30;62.70
40660;DHT22;26753;45.544;9.232;2023-03-20T16:31:15;23.10;63.20
40660;DHT22;26753;45.544;9.232;2023-03-20T16:33:43;22.90;63.70
40660;DHT22;26753;45.544;9.232;2023-03-20T16:36:16;22.30;64.90
40660;DHT22;26753;45.544;9.232;2023-03-20T16:41:28;21.80;66.20
40660;DHT22;26753;45.544;9.232;2023-03-20T16:43:55;21.40;67.40
40660;DHT22;26753;45.544;9.232;2023-03-20T16:46:24;21.20;68.00
40660;DHT22;26753;45.544;9.232;2023-03-20T16:48:51;21.30;67.90
40660;DHT22;26753;45.544;9.232;2023-03-20T16:51:21;21.40;68.00
40660;DHT22;26753;45.544;9.232;2023-03-20T16:53:49;21.50;68.20
40660;DHT22;26753;45.544;9.232;2023-03-20T16:56:16;21.20;68.70
40660;DHT22;26753;45.544;9.232;2023-03-20T16:58:46;21.00;69.00
40660;DHT22;26753;45.544;9.232;2023-03-20T17:01:19;21.00;69.40
40660;DHT22;26753;45.544;9.232;2023-03-20T17:03:52;21.10;69.70
40660;DHT22;26753;45.544;9.232;2023-03-20T17:11:12;20.90;71.00
40660;DHT22;26753;45.544;9.232;2023-03-20T17:13:38;20.70;71.90
40660;DHT22;26753;45.544;9.232;2023-03-20T17:16:04;20.50;72.40
40660;DHT22;26753;45.544;9.232;2023-03-20T17:18:29;20.50;72.70
40660;DHT22;26753;45.544;9.232;2023-03-20T17:20:55;20.40;73.20
40660;DHT22;26753;45.544;9.232;2023-03-20T17:23:21;20.40;73.40
40660;DHT22;26753;45.544;9.232;2023-03-20T17:25:48;20.30;73.70
40660;DHT22;26753;45.544;9.232;2023-03-20T17:28:15;20.00;75.20
40660;DHT22;26753;45.544;9.232;2023-03-20T17:30:42;19.80;75.40
40660;DHT22;26753;45.544;9.232;2023-03-20T17:33:13;19.70;76.10
40660;DHT22;26753;45.544;9.232;2023-03-20T17:35:40;19.60;76.80
40660;DHT22;26753;45.544;9.232;2023-03-20T17:38:07;19.70;77.70
40660;DHT22;26753;45.544;9.232;2023-03-20T17:40:36;19.60;77.60
40660;DHT22;26753;45.544;9.232;2023-03-20T17:43:02;19.50;77.90
40660;DHT22;26753;45.544;9.232;2023-03-20T17:45:27;19.50;78.40
40660;DHT22;26753;45.544;9.232;2023-03-20T17:47:55;19.50;79.10
40660;DHT22;26753;45.544;9.232;2023-03-20T17:50:24;19.40;79.50
40660;DHT22;26753;45.544;9.232;2023-03-20T17:52:51;19.30;79.90
40660;DHT22;26753;45.544;9.232;2023-03-20T17:55:18;19.40;80.70
40660;DHT22;26753;45.544;9.232;2023-03-20T17:57:46;19.30;81.20
40660;DHT22;26753;45.544;9.232;2023-03-20T18:00:16;19.20;82.00
40660;DHT22;26753;45.544;9.232;2023-03-20T18:02:43;19.10;82.70
40660;DHT22;26753;45.544;9.232;2023-03-20T18:05:08;19.10;83.30
40660;DHT22;26753;45.544;9.232;2023-03-20T18:07:34;19.00;83.90
40660;DHT22;26753;45.544;9.232;2023-03-20T18:10:00;18.90;85.00